Time;durP1;ratioP1;P1;durP2;ratioP2;P2;SDS_P1;SDS_P2;PMS_P1;PMS_P2;Temp;Humidity;BMP_temperature;BMP_pressure;BME280_temperature;BME280_humidity;BME280_pressure;Samples;Min_cycle;Max_cycle;Signal;HPM_P1;HPM_P2
2023/12/22 00:00:28;;;;;;;46.58;38.22;;;10.10;99.90;;;;;;5030736;29;20073;-74
2023/12/22 00:02:59;;;;;;;46.30;39.38;;;9.90;99.90;;;;;;5014450;29;20025;-76
2023/12/22 00:05:30;;;;;;;43.65;39.10;;;10.00;99.90;;;;;;5030722;29;20122;-75
2023/12/22 00:08:01;;;;;;;40.65;36.35;;;10.00;99.90;;;;;;5030839;29;20475;-75
2023/12/22 00:10:32;;;;;;;40.17;35.97;;;10.00;99.90;;;;;;5028566;29;20072;-75
2023/12/22 00:13:03;;;;;;;40.47;36.10;;;10.20;99.90;;;;;;5029736;29;20423;-75
2023/12/22 00:15:34;;;;;;;40.45;35.95;;;10.10;99.90;;;;;;5014232;29;20093;-77
2023/12/22 00:18:05;;;;;;;39.50;33.50;;;10.10;99.90;;;;;;5030695;29;20030;-75
2023/12/22 00:20:36;;;;;;;40.72;34.88;;;10.10;99.90;;;;;;5030768;29;20033;-75
2023/12/22 00:23:06;;;;;;;37.38;33.40;;;10.10;99.90;;;;;;5031144;29;20033;-75
2023/12/22 00:25:37;;;;;;;39.42;33.08;;;10.10;99.90;;;;;;5030676;29;20094;-78
2023/12/22 00:28:08;;;;;;;40.45;36.15;;;10.10;99.90;;;;;;5030605;29;20439;-74
2023/12/22 00:30:39;;;;;;;43.60;38.97;;;9.90;99.90;;;;;;5030496;29;20133;-74
2023/12/22 00:33:10;;;;;;;42.92;38.28;;;9.70;99.90;;;;;;5013755;29;20030;-74
2023/12/22 00:35:41;;;;;;;42.58;34.47;;;9.80;99.90;;;;;;5030289;29;20026;-75
2023/12/22 00:38:12;;;;;;;38.55;34.55;;;10.00;99.90;;;;;;5508127;23;20027;-76
2023/12/22 00:40:43;;;;;;;40.53;34.97;;;9.90;99.90;;;;;;5068005;29;20087;-76
2023/12/22 00:43:14;;;;;;;42.20;37.65;;;9.90;99.90;;;;;;5048837;29;20167;-77
2023/12/22 00:45:45;;;;;;;47.28;42.22;;;10.00;99.90;;;;;;5049227;29;20029;-76
2023/12/22 00:48:15;;;;;;;47.83;41.50;;;9.80;99.90;;;;;;5048881;29;20040;-76
2023/12/22 00:50:47;;;;;;;49.92;41.25;;;10.00;99.90;;;;;;5047826;29;20033;-76
2023/12/22 00:53:18;;;;;;;45.30;39.92;;;9.90;99.90;;;;;;5049152;29;20033;-78
2023/12/22 00:55:49;;;;;;;43.17;38.67;;;10.00;99.90;;;;;;5047735;29;20084;-76
2023/12/22 00:58:19;;;;;;;41.30;36.70;;;10.00;99.90;;;;;;5049596;29;20104;-76
2023/12/22 01:00:50;;;;;;;41.42;36.90;;;10.00;99.90;;;;;;5048129;29;20017;-76
2023/12/22 01:03:22;;;;;;;38.70;34.30;;;9.90;99.90;;;;;;5049340;29;20112;-76
2023/12/22 01:05:53;;;;;;;36.63;32.88;;;9.90;99.90;;;;;;5049354;29;20535;-79
2023/12/22 01:08:24;;;;;;;33.35;29.60;;;9.80;99.90;;;;;;5049176;29;20044;-76
2023/12/22 01:10:55;;;;;;;33.17;29.83;;;9.50;99.90;;;;;;5049121;29;20410;-78
2023/12/22 01:13:26;;;;;;;31.20;27.85;;;9.80;99.90;;;;;;5049054;29;20484;-77
2023/12/22 01:15:56;;;;;;;23.65;21.27;;;9.80;99.90;;;;;;5049132;29;20028;-76
2023/12/22 01:18:29;;;;;;;26.10;23.42;;;9.70;99.90;;;;;;5047868;29;20033;-76
2023/12/22 01:21:00;;;;;;;23.67;21.38;;;9.50;99.90;;;;;;5049044;29;20493;-76
2023/12/22 01:23:31;;;;;;;24.60;21.90;;;9.40;99.90;;;;;;5048899;29;20025;-76
2023/12/22 01:26:02;;;;;;;25.45;22.98;;;9.50;99.90;;;;;;5048831;29;20040;-76
2023/12/22 01:28:36;;;;;;;23.65;21.23;;;9.40;99.90;;;;;;5049068;29;20044;-76
2023/12/22 01:31:07;;;;;;;22.20;19.80;;;9.40;99.90;;;;;;5047236;29;20063;-77
2023/12/22 01:33:38;;;;;;;22.10;19.73;;;9.50;99.90;;;;;;5048558;29;20025;-77
2023/12/22 01:36:09;;;;;;;21.95;19.73;;;9.50;99.90;;;;;;5048691;29;20025;-78
2023/12/22 01:39:11;;;;;;;22.80;18.92;;;9.50;99.90;;;;;;5415292;23;21382;31
2023/12/22 01:41:42;;;;;;;22.05;19.38;;;9.50;99.90;;;;;;4989280;29;20046;-79
2023/12/22 01:44:13;;;;;;;20.83;18.75;;;9.40;99.90;;;;;;4990045;29;20038;-77
2023/12/22 01:46:44;;;;;;;21.80;19.55;;;9.50;99.90;;;;;;4989998;29;20050;-77
2023/12/22 01:49:15;;;;;;;22.30;19.13;;;9.60;99.90;;;;;;4991169;29;20098;-77
2023/12/22 01:51:46;;;;;;;24.08;21.08;;;9.40;99.90;;;;;;4974577;29;20060;-77
2023/12/22 01:54:17;;;;;;;24.60;22.05;;;9.30;99.90;;;;;;4989991;29;20487;-77
2023/12/22 01:56:48;;;;;;;24.52;21.55;;;9.30;99.90;;;;;;4991544;29;20038;-77
2023/12/22 01:59:19;;;;;;;25.98;21.85;;;9.30;99.90;;;;;;4991250;29;20027;-76
2023/12/22 02:01:50;;;;;;;23.63;21.13;;;9.40;99.90;;;;;;4991374;29;20042;-77
2023/12/22 02:04:22;;;;;;;25.63;23.13;;;9.60;99.90;;;;;;4990966;29;20034;-79
2023/12/22 02:06:53;;;;;;;24.75;21.83;;;9.50;99.90;;;;;;4991164;29;20376;-78
2023/12/22 02:09:23;;;;;;;27.90;22.25;;;9.60;99.90;;;;;;4991059;29;20050;-76
2023/12/22 02:11:54;;;;;;;23.05;20.05;;;9.70;99.90;;;;;;4991128;29;20102;-77
2023/12/22 02:14:25;;;;;;;24.65;21.88;;;9.60;99.90;;;;;;4989810;29;20113;-77
2023/12/22 02:17:22;;;;;;;24.77;21.45;;;9.70;99.90;;;;;;4991047;29;20035;-77
2023/12/22 02:19:55;;;;;;;23.10;20.40;;;9.80;99.90;;;;;;4990852;29;20022;-76
2023/12/22 02:22:29;;;;;;;25.85;21.00;;;9.60;99.90;;;;;;4991022;29;20034;-77
2023/12/22 02:24:59;;;;;;;27.45;22.63;;;9.70;99.90;;;;;;4991206;29;20026;-78
2023/12/22 02:27:50;;;;;;;27.67;20.98;;;9.80;99.90;;;;;;4974493;29;20521;-78
2023/12/22 02:30:39;;;;;;;24.08;21.35;;;9.70;99.90;;;;;;4990807;29;20516;-77
2023/12/22 02:33:11;;;;;;;27.95;22.00;;;9.60;99.90;;;;;;4985934;29;20038;-78
2023/12/22 02:35:44;;;;;;;26.40;22.98;;;9.60;99.90;;;;;;4989472;29;20031;-77
2023/12/22 02:38:16;;;;;;;27.00;23.42;;;9.70;99.90;;;;;;4990543;29;20087;-78
2023/12/22 02:40:48;;;;;;;25.73;21.63;;;9.80;99.90;;;;;;5003469;29;20069;-77
2023/12/22 02:43:19;;;;;;;27.25;23.27;;;9.80;99.90;;;;;;5009209;29;20030;-77
2023/12/22 02:45:52;;;;;;;25.85;23.02;;;9.70;99.90;;;;;;5009303;29;20049;-78
2023/12/22 02:48:23;;;;;;;26.45;20.85;;;9.70;99.90;;;;;;5009333;29;20079;-78
2023/12/22 02:50:54;;;;;;;24.10;19.70;;;9.60;99.90;;;;;;5009221;29;20130;-76
2023/12/22 02:53:25;;;;;;;31.00;20.98;;;9.60;99.90;;;;;;5009504;29;20415;-77
2023/12/22 02:55:56;;;;;;;26.75;23.38;;;9.40;99.90;;;;;;5009471;29;20041;-77
2023/12/22 02:58:27;;;;;;;29.30;24.83;;;9.50;99.90;;;;;;5009805;29;20026;-77
2023/12/22 03:00:58;;;;;;;25.65;22.92;;;9.60;99.90;;;;;;5009149;29;20033;-79
2023/12/22 03:03:29;;;;;;;28.00;22.80;;;9.60;99.90;;;;;;5009342;29;20029;-77
2023/12/22 03:06:00;;;;;;;27.25;23.52;;;9.60;99.90;;;;;;5009378;29;20038;-78
2023/12/22 03:08:30;;;;;;;28.70;23.70;;;9.70;99.90;;;;;;5009549;29;20018;-77
2023/12/22 03:11:01;;;;;;;30.83;26.77;;;9.60;99.90;;;;;;5009149;29;20034;-77
2023/12/22 03:13:32;;;;;;;35.13;28.00;;;9.50;99.90;;;;;;5009140;29;20036;-78
2023/12/22 03:16:07;;;;;;;34.70;26.13;;;9.60;99.90;;;;;;5009326;29;20026;-79
2023/12/22 03:18:39;;;;;;;31.55;26.90;;;9.70;99.90;;;;;;5009208;29;20105;-77
2023/12/22 03:21:18;;;;;;;34.50;28.15;;;9.70;99.90;;;;;;5009113;29;20033;-77
2023/12/22 03:23:49;;;;;;;36.13;28.70;;;9.50;99.90;;;;;;5008286;29;20855;-80
2023/12/22 03:26:20;;;;;;;34.40;29.30;;;9.60;99.90;;;;;;5007846;29;20138;-79
2023/12/22 03:28:51;;;;;;;33.47;27.63;;;9.50;99.90;;;;;;5009120;29;20042;-77
2023/12/22 03:31:21;;;;;;;33.15;28.77;;;9.60;99.90;;;;;;5007154;29;20124;-76
2023/12/22 03:33:52;;;;;;;33.10;26.77;;;9.60;99.90;;;;;;5004367;29;20034;-77
2023/12/22 03:36:23;;;;;;;35.10;29.17;;;9.40;99.90;;;;;;4987457;29;20026;-77
2023/12/22 03:38:54;;;;;;;32.25;26.08;;;9.70;99.90;;;;;;4970436;29;20027;-76
2023/12/22 03:41:25;;;;;;;34.33;26.42;;;9.50;99.90;;;;;;4993175;29;20037;-78
2023/12/22 03:43:56;;;;;;;31.98;27.88;;;9.50;99.90;;;;;;5005180;29;20387;-76
2023/12/22 03:46:27;;;;;;;33.75;26.55;;;9.50;99.90;;;;;;5007635;29;20402;-78
2023/12/22 03:48:58;;;;;;;30.60;25.05;;;9.50;99.90;;;;;;5009994;29;20030;-77
2023/12/22 03:51:29;;;;;;;31.40;25.90;;;9.40;99.90;;;;;;5010433;29;20134;-75
2023/12/22 03:54:00;;;;;;;30.13;22.88;;;9.50;99.90;;;;;;5010529;29;20112;-77
2023/12/22 03:56:31;;;;;;;31.13;27.42;;;9.40;99.90;;;;;;5009489;29;20454;-76
2023/12/22 03:59:02;;;;;;;34.50;26.33;;;9.40;99.90;;;;;;5009751;29;20022;-75
2023/12/22 04:01:33;;;;;;;31.45;26.38;;;9.40;99.90;;;;;;5009974;29;20030;-75
2023/12/22 04:04:04;;;;;;;31.77;25.92;;;9.20;99.90;;;;;;5009962;29;20026;-77
2023/12/22 04:06:40;;;;;;;32.03;26.00;;;9.10;99.90;;;;;;5009745;29;20030;-77
2023/12/22 04:09:11;;;;;;;29.42;25.50;;;9.30;99.90;;;;;;5008696;29;20061;-76
2023/12/22 04:11:41;;;;;;;32.47;25.33;;;9.30;99.90;;;;;;5009732;29;20057;-76
2023/12/22 04:14:12;;;;;;;29.58;25.38;;;9.30;99.90;;;;;;4993278;29;20026;-76
2023/12/22 04:16:43;;;;;;;29.85;25.00;;;9.30;99.90;;;;;;5008685;29;20041;-75
2023/12/22 04:19:14;;;;;;;30.83;26.27;;;9.30;99.90;;;;;;4993289;29;20030;-75
2023/12/22 04:21:45;;;;;;;29.02;25.98;;;9.20;99.90;;;;;;5009163;29;20067;-77
2023/12/22 04:24:16;;;;;;;30.30;26.98;;;9.10;99.90;;;;;;5009502;29;20038;-76
2023/12/22 04:26:47;;;;;;;34.05;27.80;;;9.20;99.90;;;;;;5008909;29;20023;-77
2023/12/22 04:29:17;;;;;;;31.38;28.00;;;9.10;99.90;;;;;;4992276;29;20505;-76
2023/12/22 04:31:48;;;;;;;41.45;33.58;;;9.10;99.90;;;;;;5008783;29;20505;-75
2023/12/22 04:34:19;;;;;;;39.20;31.17;;;8.90;99.90;;;;;;5008771;29;20117;-77
2023/12/22 04:36:50;;;;;;;36.63;30.13;;;9.00;99.90;;;;;;5008348;29;20046;-76
2023/12/22 04:39:21;;;;;;;33.63;30.02;;;9.00;99.90;;;;;;4992053;29;20057;-76
2023/12/22 04:41:52;;;;;;;35.53;29.50;;;9.10;99.90;;;;;;5009724;29;20113;-77
2023/12/22 04:44:23;;;;;;;32.15;28.73;;;9.10;99.90;;;;;;5009554;29;20038;-75
2023/12/22 04:46:54;;;;;;;33.17;29.30;;;9.00;99.90;;;;;;5009538;29;20022;-76
2023/12/22 04:49:25;;;;;;;32.15;26.20;;;9.10;99.90;;;;;;5009276;29;20041;-76
2023/12/22 04:51:56;;;;;;;33.13;26.35;;;9.00;99.90;;;;;;5009222;29;20033;-77
2023/12/22 04:54:27;;;;;;;31.00;25.90;;;8.90;99.90;;;;;;5009459;29;20489;-76
2023/12/22 04:56:58;;;;;;;28.08;24.08;;;9.00;99.90;;;;;;5009497;29;20112;-76
2023/12/22 04:59:29;;;;;;;30.73;25.92;;;8.80;99.90;;;;;;5009554;29;20030;-75
2023/12/22 05:02:00;;;;;;;29.52;26.40;;;8.90;99.90;;;;;;5009176;29;20599;-76
2023/12/22 05:04:31;;;;;;;29.58;26.02;;;8.90;99.90;;;;;;5023467;29;20506;-76
2023/12/22 05:07:06;;;;;;;31.73;26.58;;;8.90;99.90;;;;;;5009018;29;20030;-76
2023/12/22 05:09:37;;;;;;;28.77;25.17;;;8.90;99.90;;;;;;5008881;29;20037;-74
2023/12/22 05:12:08;;;;;;;27.10;24.23;;;8.90;99.90;;;;;;5008697;29;20403;-75
2023/12/22 05:14:39;;;;;;;28.92;25.67;;;8.90;99.90;;;;;;5008805;29;20535;-75
2023/12/22 05:17:10;;;;;;;29.52;26.33;;;8.90;99.90;;;;;;5008210;29;20066;-77
2023/12/22 05:19:41;;;;;;;29.55;26.52;;;8.80;99.90;;;;;;5007918;29;20030;-76
2023/12/22 05:22:11;;;;;;;33.42;28.40;;;8.90;99.90;;;;;;5007824;29;20038;-77
2023/12/22 05:24:42;;;;;;;31.58;25.42;;;8.90;99.90;;;;;;5022022;29;20030;-77
2023/12/22 05:27:14;;;;;;;32.13;28.73;;;8.80;99.90;;;;;;5008368;29;20026;-76
2023/12/22 05:29:45;;;;;;;30.50;27.30;;;9.00;99.90;;;;;;5008020;29;20089;-76
2023/12/22 05:32:16;;;;;;;30.42;26.60;;;9.00;99.90;;;;;;5008691;29;20037;-76
2023/12/22 05:34:46;;;;;;;30.30;27.13;;;8.90;99.90;;;;;;5008771;29;20108;-75
2023/12/22 05:37:17;;;;;;;31.48;28.17;;;8.90;99.90;;;;;;5008918;29;20037;-76
2023/12/22 05:39:48;;;;;;;30.30;27.05;;;8.90;99.90;;;;;;5516840;23;20079;-76
2023/12/22 05:42:19;;;;;;;30.45;27.05;;;9.00;99.90;;;;;;5105253;29;20870;-73
2023/12/22 05:44:50;;;;;;;30.10;26.90;;;9.00;99.90;;;;;;5105257;29;20024;-76
2023/12/22 05:47:21;;;;;;;32.35;27.85;;;9.00;99.90;;;;;;5105254;29;20102;-74
2023/12/22 05:49:52;;;;;;;33.17;29.17;;;9.00;99.90;;;;;;5104886;29;20464;-74
2023/12/22 05:52:23;;;;;;;32.97;28.60;;;9.00;99.90;;;;;;5105046;29;20096;-74
2023/12/22 05:54:54;;;;;;;34.83;29.27;;;9.30;99.90;;;;;;5104974;29;20061;-76
2023/12/22 05:57:26;;;;;;;34.40;29.92;;;9.30;99.90;;;;;;5105046;29;20023;-75
2023/12/22 05:59:56;;;;;;;31.88;28.42;;;9.20;99.90;;;;;;5105155;29;20086;-75
2023/12/22 06:02:27;;;;;;;33.45;27.95;;;9.40;99.90;;;;;;5104962;29;20464;-74
2023/12/22 06:04:58;;;;;;;33.60;29.77;;;9.40;99.90;;;;;;5104823;29;20032;-74
2023/12/22 06:07:29;;;;;;;34.25;29.55;;;9.40;99.90;;;;;;5104568;29;20019;-75
2023/12/22 06:10:00;;;;;;;34.88;30.60;;;9.60;99.90;;;;;;5073961;29;20094;-75
2023/12/22 06:12:31;;;;;;;33.90;30.33;;;9.60;99.90;;;;;;5084480;29;20076;-76
2023/12/22 06:15:02;;;;;;;36.80;32.88;;;9.60;99.90;;;;;;5083860;29;20447;-76
2023/12/22 06:17:33;;;;;;;35.47;31.77;;;9.50;99.90;;;;;;5084092;29;20615;-75
2023/12/22 06:20:04;;;;;;;34.25;30.55;;;9.50;99.90;;;;;;5083861;29;20038;-75
2023/12/22 06:22:35;;;;;;;33.72;30.15;;;9.60;99.90;;;;;;5083843;29;20024;-76
2023/12/22 06:25:07;;;;;;;34.83;28.92;;;9.60;99.90;;;;;;5083688;29;20043;-75
2023/12/22 06:27:38;;;;;;;32.40;29.05;;;9.80;99.90;;;;;;5084522;29;20119;-75
2023/12/22 06:30:09;;;;;;;33.42;29.85;;;9.70;99.90;;;;;;5084681;29;20438;-74
2023/12/22 06:32:41;;;;;;;33.53;28.10;;;9.90;99.90;;;;;;5084780;29;20032;-76
2023/12/22 06:35:11;;;;;;;33.83;28.40;;;9.80;99.90;;;;;;5084832;29;20024;-76
2023/12/22 06:37:42;;;;;;;32.63;29.08;;;9.80;99.90;;;;;;5084617;29;20437;-74
2023/12/22 06:40:13;;;;;;;33.00;29.55;;;9.90;99.90;;;;;;5084369;29;20052;-74
2023/12/22 06:42:45;;;;;;;31.20;27.85;;;9.90;99.90;;;;;;5067561;29;20036;-76
2023/12/22 06:45:15;;;;;;;33.05;29.52;;;10.00;99.90;;;;;;5084525;29;20099;-76
2023/12/22 06:47:46;;;;;;;31.67;28.27;;;10.10;99.90;;;;;;5084925;29;20028;-74
2023/12/22 06:50:18;;;;;;;31.60;27.45;;;10.10;99.90;;;;;;5084867;29;20044;-74
2023/12/22 06:52:49;;;;;;;30.65;27.35;;;10.20;99.90;;;;;;5084795;29;20027;-75
2023/12/22 06:55:20;;;;;;;32.83;27.55;;;10.20;99.90;;;;;;5084694;29;20059;-76
2023/12/22 06:57:51;;;;;;;29.98;26.77;;;10.40;99.90;;;;;;5084708;29;20019;-76
2023/12/22 07:00:22;;;;;;;28.48;25.27;;;10.30;99.90;;;;;;5084489;29;20039;-74
2023/12/22 07:02:53;;;;;;;28.92;25.90;;;10.60;99.90;;;;;;5084750;29;20024;-75
2023/12/22 07:05:25;;;;;;;29.35;24.98;;;10.50;99.90;;;;;;5083958;29;20028;-74
2023/12/22 07:07:56;;;;;;;29.30;24.88;;;10.60;99.90;;;;;;5067132;29;20032;-76
2023/12/22 07:10:26;;;;;;;29.45;25.98;;;10.60;99.90;;;;;;5083045;29;20377;-77
2023/12/22 07:12:58;;;;;;;25.90;22.88;;;10.80;99.90;;;;;;5083498;29;20025;-75
2023/12/22 07:15:28;;;;;;;28.23;24.02;;;10.90;99.90;;;;;;5083632;29;20028;-75
2023/12/22 07:17:59;;;;;;;24.73;22.02;;;11.00;99.90;;;;;;5083660;29;20478;-75
2023/12/22 07:20:30;;;;;;;26.10;22.92;;;10.90;99.90;;;;;;5086423;29;20039;-75
2023/12/22 07:23:01;;;;;;;24.20;21.48;;;11.00;99.90;;;;;;5070808;29;20028;-75
2023/12/22 07:25:38;;;;;;;24.27;21.65;;;11.00;99.90;;;;;;5088129;29;20107;-74
2023/12/22 07:28:09;;;;;;;25.50;20.50;;;11.10;99.90;;;;;;5087853;29;20035;-74
2023/12/22 07:30:39;;;;;;;23.08;20.75;;;11.20;99.90;;;;;;5087716;29;20032;-76
2023/12/22 07:33:10;;;;;;;23.98;21.52;;;11.30;99.90;;;;;;5087886;29;20428;-76
2023/12/22 07:35:41;;;;;;;22.80;20.48;;;11.20;99.90;;;;;;5087999;29;20028;-76
2023/12/22 07:38:12;;;;;;;22.98;20.58;;;11.10;99.90;;;;;;5087701;29;20093;-76
2023/12/22 07:40:43;;;;;;;21.38;19.10;;;11.40;99.90;;;;;;5087702;29;20484;-75
2023/12/22 07:43:14;;;;;;;22.95;20.65;;;11.40;99.90;;;;;;5087888;29;20032;-75
2023/12/22 07:45:45;;;;;;;22.45;20.13;;;11.60;99.90;;;;;;5087609;29;20091;-76
2023/12/22 07:48:16;;;;;;;23.90;20.80;;;11.60;99.90;;;;;;5087653;29;20495;-76
2023/12/22 07:50:47;;;;;;;48.08;32.78;;;11.80;99.90;;;;;;5070516;29;20036;-77
2023/12/22 07:53:18;;;;;;;29.88;24.92;;;11.90;99.90;;;;;;5087297;29;20032;-76
2023/12/22 07:55:48;;;;;;;19.88;17.77;;;11.80;99.90;;;;;;5070294;29;20028;-76
2023/12/22 07:58:19;;;;;;;19.27;17.20;;;11.90;99.90;;;;;;5087717;29;20082;-76
2023/12/22 08:00:50;;;;;;;19.10;17.35;;;11.90;99.90;;;;;;5086981;29;20039;-75
2023/12/22 08:03:21;;;;;;;23.48;18.65;;;11.80;99.90;;;;;;5086845;29;20027;-74
2023/12/22 08:05:52;;;;;;;20.58;17.35;;;11.90;99.90;;;;;;5086422;29;20039;-76
2023/12/22 08:08:23;;;;;;;18.67;16.80;;;11.90;99.90;;;;;;5086340;29;20512;-76
2023/12/22 08:10:54;;;;;;;17.50;15.77;;;12.00;99.90;;;;;;5086246;29;20519;-77
2023/12/22 08:13:25;;;;;;;19.38;17.58;;;12.00;99.90;;;;;;5085899;29;20028;-76
2023/12/22 08:15:55;;;;;;;25.52;18.15;;;11.70;99.90;;;;;;5086225;29;20385;-76
2023/12/22 08:18:26;;;;;;;18.95;15.70;;;11.80;99.90;;;;;;5086453;29;20044;-75
2023/12/22 08:20:57;;;;;;;18.75;16.95;;;11.90;99.90;;;;;;5087208;29;20027;-74
2023/12/22 08:23:29;;;;;;;20.95;18.10;;;11.90;99.90;;;;;;5087098;29;20457;-74
2023/12/22 08:25:59;;;;;;;19.23;17.25;;;11.90;99.90;;;;;;5087075;29;20028;-75
2023/12/22 08:28:30;;;;;;;18.75;17.02;;;11.90;99.90;;;;;;5087401;29;20039;-76
2023/12/22 08:31:02;;;;;;;22.30;18.70;;;12.10;99.90;;;;;;5086629;29;20032;-74
2023/12/22 08:33:33;;;;;;;20.23;18.10;;;12.10;99.90;;;;;;5086983;29;20024;-74
2023/12/22 08:36:04;;;;;;;20.08;17.80;;;12.30;99.90;;;;;;5087022;29;20053;-74
2023/12/22 08:38:36;;;;;;;22.23;20.00;;;12.40;99.90;;;;;;5086854;29;20036;-76
2023/12/22 08:41:08;;;;;;;21.98;19.58;;;12.20;99.90;;;;;;5086893;29;20059;-75
2023/12/22 08:43:39;;;;;;;21.52;19.63;;;12.40;99.90;;;;;;5086432;29;20103;-77
2023/12/22 08:46:11;;;;;;;23.17;21.02;;;12.50;99.90;;;;;;5086658;29;20032;-76
2023/12/22 08:48:42;;;;;;;23.45;21.02;;;12.90;99.90;;;;;;5086352;29;20107;-74
2023/12/22 08:51:13;;;;;;;22.45;20.45;;;12.60;99.90;;;;;;5086246;29;20123;-74
2023/12/22 08:53:44;;;;;;;22.95;20.70;;;12.80;99.90;;;;;;5086158;29;20031;-75
2023/12/22 08:56:16;;;;;;;22.45;20.35;;;12.90;99.90;;;;;;5085744;29;20469;-76
2023/12/22 08:58:49;;;;;;;25.27;22.58;;;12.80;99.90;;;;;;5069051;29;20024;-76
2023/12/22 09:01:21;;;;;;;24.30;22.13;;;13.00;99.90;;;;;;5085403;29;20032;-77
2023/12/22 09:03:52;;;;;;;23.70;21.17;;;13.20;99.90;;;;;;5085031;29;20386;-76
2023/12/22 09:06:24;;;;;;;22.13;20.13;;;13.10;99.90;;;;;;5085455;29;20476;-76
2023/12/22 09:08:55;;;;;;;21.13;19.23;;;12.90;99.90;;;;;;5084809;29;20389;-75
2023/12/22 09:11:26;;;;;;;22.88;20.77;;;12.80;99.90;;;;;;5067715;29;20041;-75
2023/12/22 09:13:57;;;;;;;20.52;18.52;;;12.70;99.90;;;;;;5084755;29;20028;-74
2023/12/22 09:16:28;;;;;;;20.30;18.30;;;12.70;99.90;;;;;;5086062;29;20163;-76
2023/12/22 09:18:59;;;;;;;21.25;19.35;;;12.70;99.90;;;;;;5068854;29;20145;-74
2023/12/22 09:21:30;;;;;;;19.67;17.63;;;12.70;99.90;;;;;;5085802;29;20091;-76
2023/12/22 09:24:01;;;;;;;19.58;17.58;;;12.70;99.90;;;;;;5085974;29;20043;-74
2023/12/22 09:26:33;;;;;;;24.15;20.10;;;12.80;99.90;;;;;;5085917;29;20024;-74
2023/12/22 09:29:04;;;;;;;22.52;20.38;;;12.70;99.90;;;;;;5085881;29;20373;-75
2023/12/22 09:31:35;;;;;;;24.17;22.08;;;12.70;99.90;;;;;;5085612;29;20062;-76
2023/12/22 09:34:06;;;;;;;24.15;21.75;;;12.60;99.90;;;;;;5085730;29;20028;-75
2023/12/22 09:36:37;;;;;;;25.88;23.60;;;12.70;99.90;;;;;;5085812;29;20429;-76
2023/12/22 09:39:08;;;;;;;25.65;23.10;;;12.70;99.90;;;;;;5068340;29;20040;-74
2023/12/22 09:41:39;;;;;;;28.88;26.05;;;12.70;99.90;;;;;;5085766;29;20751;-75
2023/12/22 09:44:11;;;;;;;26.73;24.17;;;12.70;99.90;;;;;;5085757;29;20024;-77
2023/12/22 09:46:43;;;;;;;27.67;24.80;;;12.80;99.90;;;;;;5085753;29;20369;-74
2023/12/22 09:49:15;;;;;;;28.05;25.27;;;12.60;99.90;;;;;;5085559;29;20032;-74
2023/12/22 09:51:47;;;;;;;28.38;25.65;;;12.70;99.90;;;;;;5084883;29;20036;-77
2023/12/22 09:54:18;;;;;;;26.95;24.42;;;12.70;99.90;;;;;;5085427;29;20025;-76
2023/12/22 09:56:51;;;;;;;27.45;24.77;;;12.80;99.90;;;;;;5067024;29;20024;-77
2023/12/22 09:59:22;;;;;;;26.65;24.02;;;12.60;99.90;;;;;;5084186;29;20036;-76
2023/12/22 10:01:54;;;;;;;27.10;24.27;;;12.60;99.90;;;;;;5084239;29;20099;-74
2023/12/22 10:04:25;;;;;;;26.85;24.33;;;12.60;99.90;;;;;;5083986;29;20626;-77
2023/12/22 10:07:00;;;;;;;28.20;25.27;;;12.70;99.90;;;;;;5084041;29;20087;-76
2023/12/22 10:09:32;;;;;;;27.77;25.17;;;12.80;99.90;;;;;;5067272;29;20547;-75
2023/12/22 10:12:04;;;;;;;28.33;25.00;;;12.70;99.90;;;;;;5084813;29;20048;-76
2023/12/22 10:14:37;;;;;;;31.02;28.00;;;12.70;99.90;;;;;;5067918;29;20104;-77
2023/12/22 10:17:08;;;;;;;29.23;26.42;;;12.80;99.90;;;;;;5084893;29;20377;-77
2023/12/22 10:19:39;;;;;;;29.33;26.63;;;12.80;99.90;;;;;;5084776;29;20460;-75
2023/12/22 10:22:10;;;;;;;27.33;24.73;;;13.00;99.90;;;;;;5084790;29;20032;-76
2023/12/22 10:24:52;;;;;;;27.23;24.92;;;12.90;99.90;;;;;;5084735;29;20055;-75
2023/12/22 10:27:23;;;;;;;;;;;12.90;99.90;;;;;;5085164;29;20042;-76
2023/12/22 10:29:56;;;;;;;26.45;24.15;;;12.80;99.90;;;;;;5084757;29;19907;-76
2023/12/22 10:32:27;;;;;;;27.80;25.25;;;13.00;99.90;;;;;;5084516;29;20039;-74
2023/12/22 10:34:58;;;;;;;27.20;24.80;;;13.00;99.90;;;;;;5067855;29;20066;-75
2023/12/22 10:37:28;;;;;;;28.75;26.17;;;13.10;99.90;;;;;;5084707;29;20064;-75
2023/12/22 10:39:59;;;;;;;27.25;24.92;;;13.00;99.90;;;;;;5084322;29;20453;-77
2023/12/22 10:42:30;;;;;;;25.90;23.80;;;13.00;99.90;;;;;;5084671;29;20393;-77
2023/12/22 10:45:01;;;;;;;27.50;25.20;;;13.00;99.90;;;;;;5084746;29;20036;-77
2023/12/22 10:47:32;;;;;;;27.60;24.88;;;12.90;99.90;;;;;;5084652;29;20036;-75
2023/12/22 10:50:04;;;;;;;28.95;26.58;;;13.00;99.90;;;;;;5084486;29;20031;-77
2023/12/22 10:52:35;;;;;;;27.30;24.98;;;13.00;99.90;;;;;;5066727;29;20060;-77
2023/12/22 10:55:06;;;;;;;31.17;28.42;;;12.90;99.90;;;;;;5085696;29;20025;-77
2023/12/22 10:57:38;;;;;;;30.40;27.88;;;12.90;99.90;;;;;;5070521;29;20036;-77
2023/12/22 11:00:10;;;;;;;27.27;24.98;;;12.90;99.90;;;;;;5087335;29;20020;-77
2023/12/22 11:02:43;;;;;;;27.38;24.92;;;12.90;99.90;;;;;;5087684;29;20039;-76
2023/12/22 11:05:17;;;;;;;24.48;22.42;;;13.00;99.90;;;;;;5087306;29;20032;-77
2023/12/22 11:07:49;;;;;;;26.60;24.27;;;13.10;99.90;;;;;;5088201;29;20032;-74
2023/12/22 11:10:21;;;;;;;25.75;23.75;;;13.20;99.90;;;;;;5088017;29;20048;-77
2023/12/22 11:12:53;;;;;;;26.85;24.45;;;13.10;99.90;;;;;;5088147;29;20039;-75
2023/12/22 11:15:26;;;;;;;26.58;24.45;;;13.30;99.90;;;;;;5088137;29;20028;-76
2023/12/22 11:17:59;;;;;;;28.40;26.02;;;13.10;99.90;;;;;;5088052;29;20028;-77
2023/12/22 11:20:32;;;;;;;28.33;25.98;;;13.10;99.90;;;;;;5071085;29;20436;-76
2023/12/22 11:23:05;;;;;;;25.73;23.75;;;13.20;99.90;;;;;;5087797;29;20082;-74
2023/12/22 11:25:37;;;;;;;26.30;23.95;;;13.20;99.90;;;;;;5087906;29;20032;-74
2023/12/22 11:28:11;;;;;;;26.23;24.23;;;13.10;99.90;;;;;;5087753;29;20035;-76
2023/12/22 11:30:44;;;;;;;26.00;23.73;;;13.10;99.90;;;;;;5087712;29;20452;-76
2023/12/22 11:33:16;;;;;;;23.50;21.70;;;13.00;99.90;;;;;;5087915;29;20032;-75
2023/12/22 11:35:47;;;;;;;27.25;25.15;;;12.90;99.90;;;;;;5087738;29;20060;-75
2023/12/22 11:38:18;;;;;;;24.58;22.63;;;12.80;99.90;;;;;;5087717;29;20113;-75
2023/12/22 11:40:53;;;;;;;26.70;24.50;;;12.90;99.90;;;;;;5087554;29;20643;-77
2023/12/22 11:43:24;;;;;;;24.55;22.55;;;12.70;99.90;;;;;;5087264;29;20032;-76
2023/12/22 11:45:56;;;;;;;21.50;19.75;;;12.60;99.90;;;;;;5087438;29;20036;-76
2023/12/22 11:48:27;;;;;;;23.23;21.17;;;12.60;99.90;;;;;;5086436;29;20016;-76
2023/12/22 11:50:58;;;;;;;20.63;19.05;;;12.40;99.90;;;;;;5086273;29;20107;-75
2023/12/22 11:53:32;;;;;;;14.45;13.15;;;12.10;99.90;;;;;;5086572;29;20024;-76
2023/12/22 11:56:05;;;;;;;12.25;11.10;;;11.80;99.90;;;;;;5086738;29;20086;-75
2023/12/22 11:58:54;;;;;;;12.57;11.48;;;11.90;99.90;;;;;;5087006;29;20054;-75
2023/12/22 12:01:28;;;;;;;11.25;10.35;;;11.90;99.90;;;;;;5086699;29;20020;-76
2023/12/22 12:04:03;;;;;;;12.57;11.60;;;11.70;99.90;;;;;;5087708;29;20028;-74
2023/12/22 12:06:37;;;;;;;11.60;10.68;;;11.80;99.90;;;;;;5086704;29;20020;-75
2023/12/22 12:09:17;;;;;;;12.63;11.73;;;11.70;99.90;;;;;;5087403;29;20024;-75
2023/12/22 12:12:00;;;;;;;13.82;12.63;;;11.70;99.90;;;;;;5087308;29;20044;-75
2023/12/22 12:14:41;;;;;;;11.43;10.38;;;11.50;99.90;;;;;;5087514;29;20028;-75
2023/12/22 12:17:17;;;;;;;11.15;10.13;;;11.50;99.90;;;;;;5087579;29;20071;-76
2023/12/22 12:19:48;;;;;;;9.73;8.93;;;11.60;99.90;;;;;;5087554;29;20016;-75
2023/12/22 12:22:24;;;;;;;10.18;9.38;;;11.60;99.90;;;;;;5087644;29;20032;-75
2023/12/22 12:24:55;;;;;;;10.73;9.93;;;11.70;99.90;;;;;;5087323;29;20020;-75
2023/12/22 12:27:26;;;;;;;10.93;10.02;;;11.80;99.90;;;;;;5087005;29;20051;-76
2023/12/22 12:29:57;;;;;;;10.90;9.90;;;11.70;99.90;;;;;;5086759;29;20024;-76
2023/12/22 12:32:28;;;;;;;11.50;10.60;;;11.60;99.90;;;;;;5086871;29;20429;-75
2023/12/22 12:34:59;;;;;;;10.50;9.60;;;11.60;99.90;;;;;;5087048;29;20710;-75
2023/12/22 12:37:31;;;;;;;9.50;8.60;;;11.50;99.90;;;;;;5087173;29;20036;-76
2023/12/22 12:40:04;;;;;;;11.45;10.45;;;11.50;99.90;;;;;;5085979;29;20048;-75
2023/12/22 12:42:36;;;;;;;13.25;11.95;;;11.40;99.90;;;;;;5086390;29;20036;-76
2023/12/22 12:45:08;;;;;;;10.23;9.32;;;11.40;99.90;;;;;;5069022;29;20653;-76
2023/12/22 12:47:39;;;;;;;9.65;8.95;;;11.50;99.90;;;;;;5068782;29;20077;-76
2023/12/22 12:50:11;;;;;;;9.82;9.13;;;11.30;99.90;;;;;;5085931;29;20405;-76
2023/12/22 12:52:42;;;;;;;10.35;9.55;;;11.40;99.90;;;;;;5068569;29;20036;-76
2023/12/22 12:55:13;;;;;;;10.65;9.65;;;11.40;99.90;;;;;;5085699;29;20028;-75